Plombieres, Belgium
Current Conditions -  °F | °C
As of 3:25 AM on Sunday 21 Dec 2014 (Local Time) from EHBK Reporting Station
Few Clouds Few Clouds  
Wind Chill: 33°   Ceiling: Unl
Heat Index: 39°   Visibility: 6mi
Dew Point: 37°   Wind: 9mph
Humidity: 93%   Direction: 220°SW
Pressure: 30.42"   Gusts: NA
Location:  50.74°N, 5.96°E
Report Text: EHBK 210225Z AUTO 22008KT 9999 FEW020 04/03 Q1030
Loading
Personal Weather Stations






























Interactive Weather Map New forecast layout! Learn more

10-Day Weather Forecast

Advertisements
Track Severe Weather on mobile